Time;durP1;ratioP1;P1;durP2;ratioP2;P2;SDS_P1;SDS_P2;PMS_P1;PMS_P2;Temp;Humidity;BMP_temperature;BMP_pressure;BME280_temperature;BME280_humidity;BME280_pressure;Samples;Min_cycle;Max_cycle;Signal;HPM_P1;HPM_P2
2022/01/26 00:06:31;;;;;;;31.52;15.35;;;;;;;-4.85;57.36;101059.75;5066009;28;20040;-21
2022/01/26 00:08:57;;;;;;;34.55;16.85;;;;;;;-5.05;58.15;101062.72;5065681;28;20029;-22
2022/01/26 00:11:23;;;;;;;35.03;16.95;;;;;;;-5.35;58.78;101044.59;5065742;28;20037;-21
2022/01/26 00:13:49;;;;;;;30.70;15.05;;;;;;;-5.11;58.35;101068.31;5066829;28;20025;-22
2022/01/26 00:16:39;;;;;;;39.20;18.90;;;;;;;-5.16;58.50;101049.56;5082593;28;20115;-21
2022/01/26 00:19:02;;;;;;;34.47;16.50;;;;;;;-5.35;58.81;101071.47;5066692;28;20105;-21
2022/01/26 00:21:38;;;;;;;35.00;17.52;;;;;;;-5.57;59.39;101034.69;5066880;28;20357;-21
2022/01/26 00:29:21;;;;;;;36.28;15.52;;;;;;;-5.17;59.19;101058.28;5067168;28;20028;-21
2022/01/26 00:40:35;;;;;;;32.88;14.52;;;;;;;-5.37;58.87;101010.94;5065835;28;20040;-22
2022/01/26 00:43:11;;;;;;;57.40;32.72;;;;;;;-5.47;59.50;101046.19;5066647;28;20034;-22
2022/01/26 00:45:37;;;;;;;59.10;31.52;;;;;;;-5.71;60.24;101041.50;5070489;28;20412;-21
2022/01/26 00:48:05;;;;;;;134.73;66.75;;;;;;;-5.80;61.20;101044.66;5070470;28;20033;-21
2022/01/26 00:50:32;;;;;;;74.60;45.75;;;;;;;-5.69;60.61;101021.47;5069083;28;20499;-21
2022/01/26 00:52:57;;;;;;;34.35;17.35;;;;;;;-5.43;60.10;101050.28;5070337;28;20051;-21
2022/01/26 00:55:23;;;;;;;38.08;17.33;;;;;;;-5.33;59.60;101012.41;5069094;28;20024;-21
2022/01/26 00:57:48;;;;;;;36.58;16.25;;;;;;;-5.42;59.05;101044.16;5068850;28;20044;-21
2022/01/26 01:00:17;;;;;;;33.50;16.23;;;;;;;-5.40;59.56;101037.09;5070391;28;20032;-21
2022/01/26 01:02:42;;;;;;;39.60;21.63;;;;;;;-5.45;59.06;100998.38;5070254;28;20029;-21
2022/01/26 01:05:16;;;;;;;92.70;61.88;;;;;;;-5.47;59.58;101030.59;5070290;28;20461;-22
2022/01/26 01:07:43;;;;;;;40.50;22.80;;;;;;;-5.56;59.92;101036.34;5069856;28;20510;-21
2022/01/26 01:10:09;;;;;;;109.63;65.22;;;;;;;-5.55;60.88;101022.44;5070449;28;20062;-21
2022/01/26 01:12:40;;;;;;;52.90;30.17;;;;;;;-5.43;59.97;101021.69;5070132;28;20029;-21
2022/01/26 01:15:06;;;;;;;60.28;32.72;;;;;;;-5.26;58.58;100989.47;5070327;28;20028;-21
2022/01/26 01:17:38;;;;;;;46.72;22.20;;;;;;;-5.48;59.35;101002.94;5068648;28;20032;-21
2022/01/26 01:20:20;;;;;;;46.42;20.23;;;;;;;-5.44;59.64;101009.63;5069690;28;20074;-21
2022/01/26 01:30:44;;;;;;;70.55;30.40;;;;;;;-5.65;59.74;100996.16;5068161;28;20420;-21
2022/01/26 01:33:15;;;;;;;43.65;24.55;;;;;;;-5.41;60.09;101005.97;5069962;28;20131;-21
2022/01/26 01:35:43;;;;;;;46.90;25.15;;;;;;;-5.42;58.54;100989.56;5069779;28;20506;-21
2022/01/26 01:38:10;;;;;;;42.88;23.48;;;;;;;-5.40;58.20;100990.31;5069806;28;20028;-21
2022/01/26 01:40:37;;;;;;;66.57;37.92;;;;;;;-5.63;58.78;100983.91;5069608;28;20041;-21
2022/01/26 01:43:03;;;;;;;53.38;32.90;;;;;;;-5.25;58.52;101002.38;5067882;28;20021;-21
2022/01/26 01:45:45;;;;;;;51.03;33.65;;;;;;;-5.38;58.11;100980.66;5069624;28;20036;-22
2022/01/26 01:48:14;;;;;;;53.03;34.45;;;;;;;-5.60;58.55;101003.66;5052670;28;20031;-21
2022/01/26 01:50:41;;;;;;;52.25;36.33;;;;;;;-5.69;59.00;100999.84;5052048;28;20067;-23
2022/01/26 01:53:08;;;;;;;41.25;24.60;;;;;;;-5.67;58.88;100993.63;5069288;28;20407;-22
2022/01/26 01:55:34;;;;;;;47.97;30.52;;;;;;;-5.75;59.55;100995.84;5068932;28;20036;-21
2022/01/26 01:57:59;;;;;;;43.22;21.60;;;;;;;-5.50;58.14;100991.78;5067678;28;20749;-30
2022/01/26 02:00:25;;;;;;;49.80;27.23;;;;;;;-5.95;59.35;100981.47;5069253;28;20036;-22
2022/01/26 02:02:51;;;;;;;43.58;21.45;;;;;;;-5.65;58.72;101003.94;5068959;28;20086;-21
2022/01/26 02:05:17;;;;;;;50.78;36.03;;;;;;;-5.95;59.38;100978.03;5069052;28;20032;-21
2022/01/26 02:07:42;;;;;;;39.95;18.92;;;;;;;-5.89;59.64;100993.22;5068825;28;20092;-22
2022/01/26 02:10:09;;;;;;;32.75;16.58;;;;;;;-5.86;59.38;100990.47;5068597;28;20040;-22
2022/01/26 02:12:38;;;;;;;38.55;17.13;;;;;;;-5.70;59.70;100982.59;5069113;28;20023;-21
2022/01/26 02:15:10;;;;;;;32.25;15.55;;;;;;;-5.66;58.68;100952.88;5069000;28;20036;-21
2022/01/26 02:18:13;;;;;;;31.35;14.50;;;;;;;-5.40;57.41;100942.69;5068939;28;20036;-21
2022/01/26 02:56:28;;;;;;;25.98;12.88;;;;;;;-5.43;56.86;100928.13;5068321;28;20032;-21
2022/01/26 03:04:19;;;;;;;29.98;13.75;;;;;;;-5.42;56.17;100924.56;5067891;28;20048;-21
2022/01/26 03:09:14;;;;;;;63.88;23.30;;;;;;;-5.88;57.61;100937.78;5067962;28;20095;-21
2022/01/26 03:11:44;;;;;;;37.75;17.40;;;;;;;-5.97;57.56;100940.94;5067680;28;20330;-22
2022/01/26 03:14:59;;;;;;;36.05;17.88;;;;;;;-5.84;58.39;100947.06;5067747;28;20040;-21
2022/01/26 03:17:00;;;;;;;33.60;15.02;;;;;;;-5.76;57.94;100942.22;5059575;28;20066;-22
2022/01/26 03:19:40;;;;;;;28.80;14.45;;;;;;;-5.97;57.89;100939.16;5067809;28;20111;-21
2022/01/26 03:28:09;;;;;;;32.63;16.08;;;;;;;-6.22;59.29;100949.34;5067125;28;20036;-21
2022/01/26 03:30:30;;;;;;;29.33;13.75;;;;;;;-7.54;63.76;100918.59;5067283;28;20098;-21
2022/01/26 03:35:49;;;;;;;31.00;13.43;;;;;;;-6.66;61.74;100912.03;5065894;28;20484;-21
2022/01/26 03:38:29;;;;;;;30.73;13.43;;;;;;;-6.65;61.78;100937.06;5067896;28;20029;-21
2022/01/26 03:43:35;;;;;;;31.20;14.27;;;;;;;-6.02;60.27;100930.00;5067396;28;20107;-21
2022/01/26 03:46:01;;;;;;;30.45;13.30;;;;;;;-5.50;58.39;100926.81;5066966;28;20082;-21
2022/01/26 03:48:26;;;;;;;29.73;13.80;;;;;;;-5.72;58.35;100922.94;5067455;28;20031;-21
2022/01/26 03:50:52;;;;;;;27.70;13.45;;;;;;;-5.71;58.06;100924.59;5067214;28;20028;-21
2022/01/26 03:53:17;;;;;;;34.45;16.38;;;;;;;-5.77;58.44;100893.78;5065874;28;20828;-21
2022/01/26 03:55:43;;;;;;;32.28;13.23;;;;;;;-5.50;58.12;100925.03;5066853;28;20028;-22
2022/01/26 03:58:08;;;;;;;29.55;13.20;;;;;;;-5.80;58.06;100925.16;5067187;28;20035;-21
2022/01/26 04:00:34;;;;;;;47.05;19.80;;;;;;;-6.22;59.98;100919.00;5066846;28;20039;-21
2022/01/26 04:02:59;;;;;;;86.07;32.47;;;;;;;-6.36;60.10;100917.22;5065964;28;20569;-21
2022/01/26 04:05:26;;;;;;;62.38;26.08;;;;;;;-6.32;60.56;100923.06;5066074;28;20037;-21
2022/01/26 04:07:57;;;;;;;54.00;21.92;;;;;;;-6.44;60.91;100913.41;5066617;28;20028;-21
2022/01/26 04:11:24;;;;;;;51.05;20.27;;;;;;;-6.59;60.80;100869.25;5067080;28;20039;-21
2022/01/26 04:13:08;;;;;;;35.45;15.38;;;;;;;-6.82;62.17;100919.84;5062326;28;20150;-21
2022/01/26 04:15:35;;;;;;;48.75;19.10;;;;;;;-7.33;63.65;100883.75;5065687;28;20397;-22
2022/01/26 04:18:03;;;;;;;36.58;15.35;;;;;;;-7.67;64.30;100870.03;5067560;28;20036;-21
2022/01/26 04:20:33;;;;;;;34.92;15.02;;;;;;;-7.56;64.53;100902.28;5069594;28;20071;-21
2022/01/26 04:23:14;;;;;;;34.47;14.35;;;;;;;-6.94;62.78;100911.00;5070944;28;20468;-21
2022/01/26 04:25:42;;;;;;;36.78;13.80;;;;;;;-6.79;62.25;100905.88;5070589;28;20053;-21
2022/01/26 04:28:12;;;;;;;40.58;16.75;;;;;;;-7.10;61.92;100895.44;5071159;28;20036;-21
2022/01/26 04:30:38;;;;;;;32.03;14.68;;;;;;;-6.77;61.97;100901.44;5070416;28;20064;-21
2022/01/26 04:33:05;;;;;;;32.72;14.48;;;;;;;-6.51;60.96;100905.13;5070031;28;20518;-21
2022/01/26 04:35:31;;;;;;;37.28;16.10;;;;;;;-7.04;62.15;100893.44;5070924;28;20024;-21
2022/01/26 04:40:35;;;;;;;40.03;16.30;;;;;;;-6.94;62.03;100884.25;5070967;28;20028;-21
2022/01/26 04:43:06;;;;;;;36.92;16.58;;;;;;;-6.47;61.16;100904.88;5069906;28;20029;-22
2022/01/26 04:45:31;;;;;;;30.98;15.52;;;;;;;-6.55;60.81;100911.44;5068888;28;20046;-21
2022/01/26 04:47:57;;;;;;;35.28;15.65;;;;;;;-6.69;61.19;100904.44;5070069;28;20021;-21
2022/01/26 04:50:22;;;;;;;39.95;16.85;;;;;;;-6.41;60.15;100900.25;5070790;28;20415;-21
2022/01/26 04:52:48;;;;;;;39.63;16.35;;;;;;;-6.55;59.84;100895.84;5070387;28;20094;-21
2022/01/26 04:55:14;;;;;;;35.22;16.75;;;;;;;-6.54;60.41;100879.34;5070190;28;20503;-21
2022/01/26 04:57:39;;;;;;;35.28;15.27;;;;;;;-6.24;60.67;100905.28;5085864;28;20036;-21
2022/01/26 05:00:06;;;;;;;30.65;14.88;;;;;;;-6.29;60.29;100886.56;5070174;28;20779;-21
2022/01/26 05:02:31;;;;;;;36.15;17.13;;;;;;;-6.23;59.74;100883.59;5070419;28;20834;-21
2022/01/26 05:04:57;;;;;;;33.53;15.18;;;;;;;-6.29;59.61;100878.78;5070025;28;20059;-21
2022/01/26 05:07:22;;;;;;;43.83;18.73;;;;;;;-6.12;59.93;100904.56;5070329;28;20097;-22
2022/01/26 05:09:48;;;;;;;63.05;31.10;;;;;;;-6.22;59.68;100882.66;5069933;28;20400;-21
2022/01/26 05:12:14;;;;;;;71.88;32.92;;;;;;;-5.86;58.77;100902.97;5070228;28;20405;-21
2022/01/26 05:14:42;;;;;;;57.90;28.42;;;;;;;-5.70;58.77;100905.50;5069920;28;20416;-23
2022/01/26 05:17:08;;;;;;;49.13;23.63;;;;;;;-6.13;58.55;100907.25;5070139;28;20037;-21
2022/01/26 05:19:33;;;;;;;46.35;23.83;;;;;;;-6.29;60.01;100907.31;5069998;28;20040;-21
2022/01/26 05:21:59;;;;;;;44.67;22.05;;;;;;;-6.48;60.73;100908.41;5069093;28;20036;-21
2022/01/26 05:24:24;;;;;;;44.30;22.58;;;;;;;-6.68;61.04;100869.75;5069621;28;20090;-21
2022/01/26 05:26:49;;;;;;;46.63;21.75;;;;;;;-6.51;60.43;100893.00;5069995;28;20157;-21
2022/01/26 05:29:15;;;;;;;44.17;23.15;;;;;;;-6.16;59.82;100910.84;5069391;28;20063;-21
2022/01/26 05:31:40;;;;;;;53.20;26.75;;;;;;;-6.36;60.16;100908.59;5069562;28;20191;-22
2022/01/26 05:34:07;;;;;;;51.33;26.88;;;;;;;-6.16;60.11;100907.44;5069517;28;20090;-21
2022/01/26 05:36:32;;;;;;;58.40;27.50;;;;;;;-6.37;60.11;100884.41;5069684;28;20086;-22
2022/01/26 05:38:57;;;;;;;57.90;29.13;;;;;;;-6.36;60.36;100904.22;5069685;28;20568;-22
2022/01/26 05:41:23;;;;;;;55.83;28.15;;;;;;;-6.59;61.29;100892.59;5069677;28;20016;-21
2022/01/26 05:43:49;;;;;;;56.67;28.00;;;;;;;-6.71;61.49;100901.91;5069043;28;20040;-22
2022/01/26 05:46:23;;;;;;;44.38;20.42;;;;;;;-6.73;62.25;100897.75;5069442;28;20028;-21
2022/01/26 05:48:49;;;;;;;44.90;21.85;;;;;;;-6.52;62.57;100901.72;5069256;28;20721;-21
2022/01/26 05:51:16;;;;;;;41.40;20.60;;;;;;;-6.36;61.98;100900.81;5069547;28;20048;-21
2022/01/26 05:53:42;;;;;;;41.70;21.10;;;;;;;-6.20;61.18;100875.63;5068996;28;20494;-21
2022/01/26 05:56:07;;;;;;;42.08;19.48;;;;;;;-6.02;60.58;100883.25;5069327;28;20048;-22
2022/01/26 05:58:33;;;;;;;34.00;17.10;;;;;;;-5.88;60.10;100881.47;5084706;28;20071;-22
2022/01/26 06:01:00;;;;;;;36.90;17.13;;;;;;;-5.34;58.37;100896.34;5069432;28;20447;-21
2022/01/26 06:03:26;;;;;;;38.95;16.33;;;;;;;-5.41;58.72;100902.88;5068891;28;20059;-21
2022/01/26 06:05:53;;;;;;;34.95;15.75;;;;;;;-5.11;59.48;100907.06;5068950;28;20060;-21
2022/01/26 06:08:19;;;;;;;29.48;14.70;;;;;;;-5.39;59.91;100892.34;5069099;28;20028;-21
2022/01/26 06:10:44;;;;;;;32.63;14.63;;;;;;;-5.22;59.48;100909.50;5067451;28;20032;-21
2022/01/26 06:13:10;;;;;;;36.20;17.60;;;;;;;-5.15;61.40;100896.03;5068975;28;20040;-22
2022/01/26 06:15:35;;;;;;;31.45;16.33;;;;;;;-5.06;60.34;100884.19;5068874;28;20554;-21
2022/01/26 06:18:00;;;;;;;42.80;19.75;;;;;;;-5.43;63.09;100912.53;5068708;28;20036;-21
2022/01/26 06:20:26;;;;;;;44.97;20.85;;;;;;;-5.42;63.43;100924.56;5069168;28;20032;-21
2022/01/26 06:22:51;;;;;;;49.10;22.00;;;;;;;-5.58;64.20;100918.66;5068737;28;20032;-21
2022/01/26 06:25:17;;;;;;;57.90;25.05;;;;;;;-5.71;64.91;100934.16;5068544;28;20067;-21
2022/01/26 06:27:46;;;;;;;60.50;26.40;;;;;;;-5.85;65.12;100922.00;5068563;28;20055;-21
2022/01/26 06:30:11;;;;;;;60.13;28.20;;;;;;;-6.00;65.93;100912.56;5068685;28;20055;-22
2022/01/26 06:32:38;;;;;;;65.95;29.52;;;;;;;-5.82;65.04;100911.44;5068464;28;20112;-22
2022/01/26 06:35:07;;;;;;;75.68;35.03;;;;;;;-5.99;65.37;100893.44;5068844;28;20054;-21
2022/01/26 06:37:33;;;;;;;78.20;34.25;;;;;;;-5.96;65.38;100916.66;5068495;28;20020;-21
2022/01/26 06:39:58;;;;;;;72.95;36.50;;;;;;;-6.11;65.39;100916.63;5066812;28;20047;-21
2022/01/26 06:42:28;;;;;;;60.05;28.65;;;;;;;-6.11;65.81;100921.81;5068014;28;20523;-22
2022/01/26 06:45:12;;;;;;;56.03;25.73;;;;;;;-5.86;65.44;100930.72;5068538;28;20856;-21
2022/01/26 06:50:21;;;;;;;48.25;24.45;;;;;;;-5.02;61.25;100916.06;5068293;28;20095;-21
2022/01/26 06:52:47;;;;;;;113.50;52.35;;;;;;;-4.82;61.11;100906.97;5068030;28;20036;-21
2022/01/26 06:55:16;;;;;;;70.60;29.40;;;;;;;-4.57;60.62;100886.22;5083681;28;20029;-21
2022/01/26 06:57:42;;;;;;;47.58;22.13;;;;;;;-4.68;60.27;100899.09;5066386;28;20020;-21
2022/01/26 07:00:08;;;;;;;44.67;20.95;;;;;;;-4.46;60.33;100914.97;5066295;28;20041;-22
2022/01/26 07:02:36;;;;;;;50.00;21.25;;;;;;;-4.64;60.37;100916.19;5067975;28;20107;-21
2022/01/26 07:05:01;;;;;;;57.13;25.02;;;;;;;-4.75;60.40;100898.66;5067959;28;20119;-21
2022/01/26 07:07:27;;;;;;;76.97;40.20;;;;;;;-4.32;59.59;100921.03;5067653;28;20036;-21
2022/01/26 07:09:52;;;;;;;65.78;30.77;;;;;;;-4.31;61.11;100933.97;5067595;28;20043;-21
2022/01/26 07:12:17;;;;;;;99.10;45.88;;;;;;;-4.53;61.45;100918.09;5067670;28;20415;-21
2022/01/26 07:22:40;;;;;;;173.18;70.57;;;;;;;-3.37;58.85;100926.75;5066136;28;20922;-21
2022/01/26 07:25:05;;;;;;;96.40;45.47;;;;;;;-3.34;58.44;100914.34;5067334;28;20064;-22
2022/01/26 07:27:31;;;;;;;45.28;23.88;;;;;;;-3.21;56.69;100923.91;5067387;28;20166;-22
2022/01/26 07:29:58;;;;;;;55.97;28.30;;;;;;;-3.16;57.37;100887.91;5067094;28;20029;-21
2022/01/26 07:32:26;;;;;;;84.13;39.20;;;;;;;-3.05;58.10;100925.31;5067410;28;20043;-21
2022/01/26 07:34:53;;;;;;;61.78;28.38;;;;;;;-2.90;57.62;100920.78;5067116;28;20083;-21
2022/01/26 07:37:20;;;;;;;193.30;81.65;;;;;;;-2.88;57.52;100931.94;5067099;28;20055;-21
2022/01/26 07:40:00;;;;;;;277.90;112.57;;;;;;;-2.87;57.19;100938.81;5067296;28;20496;-21
2022/01/26 07:42:25;;;;;;;140.25;61.65;;;;;;;-2.50;57.35;100933.53;5066036;28;20032;-21
2022/01/26 07:44:50;;;;;;;159.95;64.90;;;;;;;-2.38;56.83;100928.34;5066429;28;20086;-21
2022/01/26 07:47:16;;;;;;;92.97;42.22;;;;;;;-2.46;56.94;100927.13;5066997;28;20707;-21
2022/01/26 07:49:42;;;;;;;49.40;22.83;;;;;;;-2.23;56.59;100916.75;5066458;28;20028;-21
2022/01/26 07:52:07;;;;;;;34.33;17.45;;;;;;;-2.31;55.92;100942.63;5066333;28;20460;-21
2022/01/26 07:54:33;;;;;;;50.55;23.02;;;;;;;-2.45;57.05;100907.09;5066948;28;20033;-21
2022/01/26 07:56:58;;;;;;;35.53;18.42;;;;;;;-2.10;55.27;100930.56;5067176;28;20510;-21
2022/01/26 07:59:24;;;;;;;35.80;17.35;;;;;;;-1.80;53.78;100939.63;5067208;28;20040;-21
2022/01/26 08:01:49;;;;;;;31.85;17.02;;;;;;;-1.47;53.91;100941.47;5066400;28;20528;-21
2022/01/26 08:04:14;;;;;;;32.50;17.63;;;;;;;-1.68;53.46;100938.69;5066689;28;20032;-25
2022/01/26 08:06:40;;;;;;;30.42;16.83;;;;;;;-1.34;53.53;100938.72;5065085;28;20035;-21
2022/01/26 08:09:06;;;;;;;50.28;24.20;;;;;;;-1.14;55.13;100907.53;5066710;28;20571;-21
2022/01/26 08:11:31;;;;;;;33.50;18.00;;;;;;;-1.10;53.60;100932.50;5066920;28;20119;-21
2022/01/26 08:13:58;;;;;;;35.22;16.80;;;;;;;-1.04;51.72;100925.00;5066504;28;20040;-21
2022/01/26 08:16:23;;;;;;;35.72;17.63;;;;;;;-0.87;52.95;100923.63;5066420;28;20480;-21
2022/01/26 08:18:49;;;;;;;37.17;18.45;;;;;;;-0.82;53.29;100923.25;5066494;28;20035;-21
2022/01/26 08:21:15;;;;;;;42.35;19.55;;;;;;;-0.74;53.77;100938.34;5066425;28;20035;-21
2022/01/26 08:23:43;;;;;;;34.15;18.38;;;;;;;-0.49;51.22;100914.44;5066532;28;20040;-21
2022/01/26 08:26:09;;;;;;;35.28;18.60;;;;;;;-0.15;51.17;100922.13;5066485;28;20064;-21
2022/01/26 08:28:39;;;;;;;43.83;22.25;;;;;;;0.14;51.63;100938.06;5066121;28;20093;-21
2022/01/26 08:31:04;;;;;;;42.45;20.45;;;;;;;-0.06;51.06;100941.50;5066313;28;20109;-22
2022/01/26 08:33:30;;;;;;;41.63;21.58;;;;;;;-0.39;51.32;100916.28;5066107;28;20028;-22
2022/01/26 08:35:55;;;;;;;47.88;22.52;;;;;;;0.01;51.32;100933.97;5066304;28;20029;-21
2022/01/26 08:38:21;;;;;;;45.92;24.00;;;;;;;0.16;51.98;100917.78;5066482;28;20043;-21
2022/01/26 08:40:47;;;;;;;41.63;20.20;;;;;;;0.18;50.90;100930.72;5066487;28;20076;-22
2022/01/26 08:43:13;;;;;;;36.33;18.63;;;;;;;-0.05;50.63;100930.06;5065551;28;20032;-21
2022/01/26 08:45:39;;;;;;;37.13;18.02;;;;;;;0.01;48.95;100933.97;5075675;28;20056;-21
2022/01/26 08:48:05;;;;;;;49.67;23.50;;;;;;;0.00;52.06;100922.66;5075994;28;20504;-21
2022/01/26 08:50:30;;;;;;;41.78;20.92;;;;;;;0.24;51.31;100930.22;5077592;28;20024;-22
2022/01/26 08:52:56;;;;;;;37.25;19.98;;;;;;;0.49;49.89;100934.22;5076073;28;20411;-21
2022/01/26 08:55:21;;;;;;;38.42;19.98;;;;;;;0.33;50.97;100932.06;5077448;28;20028;-21
2022/01/26 08:57:46;;;;;;;39.97;21.50;;;;;;;0.44;49.89;100925.88;5077147;28;20037;-21
2022/01/26 09:00:12;;;;;;;34.58;20.33;;;;;;;0.48;49.67;100915.97;5074939;28;20028;-21
2022/01/26 09:02:38;;;;;;;33.35;17.30;;;;;;;0.39;50.04;100930.72;5076500;28;20066;-22
2022/01/26 09:05:04;;;;;;;33.72;17.98;;;;;;;0.56;49.41;100927.47;5076759;28;20052;-21
2022/01/26 09:07:31;;;;;;;33.35;17.70;;;;;;;0.94;49.36;100925.91;5069800;28;20031;-21
2022/01/26 09:09:59;;;;;;;42.50;22.48;;;;;;;1.04;50.58;100917.22;5069502;28;20052;-21
2022/01/26 09:12:27;;;;;;;;;;;;;;;1.30;50.46;100923.59;5069957;28;20146;-21
2022/01/26 09:14:52;;;;;;;70.27;34.87;;;;;;;1.16;49.51;100903.81;5069739;28;19908;-21
2022/01/26 09:17:19;;;;;;;42.38;21.10;;;;;;;1.45;49.21;100910.91;5069314;28;20040;-21
2022/01/26 09:19:45;;;;;;;41.75;21.73;;;;;;;1.45;50.46;100916.16;5069553;28;20439;-21
2022/01/26 09:22:13;;;;;;;45.42;22.90;;;;;;;1.74;48.89;100918.75;5068336;28;20617;-21
2022/01/26 09:24:40;;;;;;;41.42;22.13;;;;;;;1.56;48.91;100892.34;5069392;28;20028;-21
2022/01/26 09:27:06;;;;;;;38.58;20.63;;;;;;;1.87;48.17;100910.56;5069544;28;20024;-21
2022/01/26 09:29:32;;;;;;;31.58;18.15;;;;;;;1.80;47.27;100912.94;5069490;28;20036;-21
2022/01/26 09:31:57;;;;;;;46.63;21.27;;;;;;;1.78;48.65;100916.69;5068963;28;20766;-21
2022/01/26 09:34:28;;;;;;;36.40;19.38;;;;;;;1.61;48.39;100907.69;5069236;28;20041;-22
2022/01/26 09:36:54;;;;;;;32.40;18.52;;;;;;;1.99;48.21;100906.81;5069491;28;20037;-21
2022/01/26 09:39:20;;;;;;;35.55;19.17;;;;;;;2.13;47.30;100886.28;5069252;28;20025;-21
2022/01/26 09:41:49;;;;;;;24.95;14.65;;;;;;;1.98;47.08;100902.53;5069092;28;20481;-20
2022/01/26 09:44:15;;;;;;;26.80;14.55;;;;;;;2.00;46.79;100897.97;5068897;28;20066;-20
2022/01/26 09:46:40;;;;;;;24.77;13.50;;;;;;;1.57;47.50;100894.03;5069479;28;20033;-21
2022/01/26 09:49:06;;;;;;;22.80;12.20;;;;;;;1.24;47.21;100852.38;5067641;28;20036;-21
2022/01/26 09:51:38;;;;;;;21.25;10.98;;;;;;;1.40;46.44;100886.81;5069065;28;20045;-22
2022/01/26 09:54:08;;;;;;;23.48;10.70;;;;;;;1.33;47.85;100881.28;5068680;28;20028;-21
2022/01/26 09:56:34;;;;;;;28.38;13.43;;;;;;;1.53;47.62;100876.00;5068933;28;20032;-20
2022/01/26 09:58:59;;;;;;;25.83;11.93;;;;;;;1.24;47.59;100870.78;5068646;28;20495;-21
2022/01/26 10:01:25;;;;;;;35.42;15.55;;;;;;;1.16;48.83;100864.41;5068729;28;20028;-21
2022/01/26 10:03:51;;;;;;;26.30;12.35;;;;;;;1.00;48.99;100849.22;5068783;28;20036;-21
2022/01/26 10:06:25;;;;;;;36.67;14.65;;;;;;;1.24;49.23;100868.16;5068705;28;20036;-21
2022/01/26 10:17:23;;;;;;;21.65;10.57;;;;;;;1.06;49.24;100866.19;5067428;28;20420;-22
2022/01/26 10:19:56;;;;;;;34.88;18.80;;;;;;;1.05;49.93;100861.94;5067740;28;20120;-21
2022/01/26 10:22:26;;;;;;;31.45;15.93;;;;;;;1.08;50.59;100858.19;5068406;28;20037;-21
2022/01/26 10:25:05;;;;;;;47.47;25.17;;;;;;;1.22;50.13;100849.06;5066777;28;20053;-22
2022/01/26 10:27:39;;;;;;;37.05;17.55;;;;;;;1.18;49.84;100861.66;5068302;28;20624;-21
2022/01/26 10:30:06;;;;;;;33.13;18.70;;;;;;;1.35;51.38;100852.25;5067685;28;20104;-21
2022/01/26 10:32:35;;;;;;;36.97;19.20;;;;;;;1.53;49.05;100829.56;5068239;28;20047;-20
2022/01/26 10:35:01;;;;;;;21.95;11.85;;;;;;;0.90;50.48;100835.25;5068043;28;20037;-21
2022/01/26 10:37:27;;;;;;;21.27;11.65;;;;;;;0.98;51.27;100845.03;5068030;28;20032;-22
2022/01/26 10:39:56;;;;;;;24.75;12.88;;;;;;;1.02;51.17;100821.97;5067829;28;20045;-21
2022/01/26 10:42:23;;;;;;;;;;;;;;;1.20;51.17;100834.25;5068509;28;20126;-21
2022/01/26 10:45:13;;;;;;;23.80;12.25;;;;;;;1.05;50.33;100804.13;5067704;28;20019;-21
2022/01/26 10:47:43;;;;;;;21.58;10.80;;;;;;;1.22;50.30;100810.47;5067989;28;20037;-21
2022/01/26 10:53:12;;;;;;;17.42;9.43;;;;;;;1.15;50.13;100802.34;5054644;28;20044;-21
2022/01/26 10:55:38;;;;;;;28.35;14.00;;;;;;;1.73;51.40;100825.06;5068017;28;20107;-20
2022/01/26 10:58:04;;;;;;;30.63;13.98;;;;;;;1.82;50.33;100807.59;5072691;28;20115;-22
2022/01/26 11:00:35;;;;;;;33.00;14.20;;;;;;;1.61;50.29;100826.19;5066398;28;20059;-21
2022/01/26 11:03:00;;;;;;;33.20;15.93;;;;;;;1.66;51.22;100813.47;5067463;28;20500;-21
2022/01/26 11:05:26;;;;;;;30.83;15.05;;;;;;;1.88;50.53;100807.03;5049354;28;20040;-21
2022/01/26 11:07:51;;;;;;;30.55;14.70;;;;;;;2.00;51.91;100805.03;5067256;28;20431;-21
2022/01/26 11:10:17;;;;;;;24.80;10.57;;;;;;;1.91;49.89;100776.97;5066315;28;20033;-21
2022/01/26 11:12:43;;;;;;;21.67;9.90;;;;;;;1.74;50.55;100768.06;5066033;28;20036;-21
2022/01/26 11:15:13;;;;;;;30.25;12.88;;;;;;;1.91;50.34;100780.44;5067152;28;20028;-21
2022/01/26 11:17:42;;;;;;;29.80;14.75;;;;;;;1.70;50.99;100793.78;5067012;28;20063;-20
2022/01/26 11:20:18;;;;;;;29.15;14.00;;;;;;;1.88;51.78;100791.25;5066630;28;20412;-21
2022/01/26 11:22:58;;;;;;;24.55;12.13;;;;;;;1.74;51.62;100779.38;5067250;28;20177;-21
2022/01/26 11:25:26;;;;;;;21.67;11.30;;;;;;;1.81;50.96;100779.63;5067287;28;20103;-21
2022/01/26 11:27:52;;;;;;;;;;;;;;;1.89;50.71;100789.44;5066875;28;20033;-20
2022/01/26 11:30:22;;;;;;;24.23;11.07;;;;;;;2.22;50.22;100780.97;5067089;28;19912;-21
2022/01/26 11:32:52;;;;;;;28.00;12.23;;;;;;;2.28;50.90;100778.72;5066931;28;20806;-21
2022/01/26 11:35:19;;;;;;;22.15;10.52;;;;;;;2.11;49.50;100767.19;5071844;28;20035;-20
2022/01/26 11:37:47;;;;;;;24.10;11.70;;;;;;;2.20;51.28;100761.84;5082808;28;20507;-21
2022/01/26 11:46:07;;;;;;;24.17;11.85;;;;;;;2.40;50.84;100761.75;5072238;28;20044;-22
2022/01/26 11:48:32;;;;;;;26.63;12.65;;;;;;;2.48;49.82;100739.97;5066071;28;20514;-21
2022/01/26 11:50:59;;;;;;;23.42;11.43;;;;;;;2.70;50.97;100728.16;5066396;28;20068;-21
2022/01/26 11:53:26;;;;;;;23.02;11.75;;;;;;;2.91;49.61;100767.34;5066514;28;20028;-21
2022/01/26 11:55:58;;;;;;;24.88;12.15;;;;;;;2.78;50.10;100768.56;5076847;28;20381;-21
2022/01/26 11:58:34;;;;;;;23.75;12.00;;;;;;;3.27;49.71;100759.38;5085254;28;20028;-23
2022/01/26 12:03:43;;;;;;;25.02;12.95;;;;;;;3.97;48.35;100754.84;5067033;28;20056;-21
2022/01/26 12:06:16;;;;;;;22.70;11.73;;;;;;;3.61;47.61;100725.97;5079509;28;20039;-22
2022/01/26 12:08:42;;;;;;;25.23;12.13;;;;;;;4.15;48.40;100738.91;5074336;28;20051;-23
2022/01/26 12:11:10;;;;;;;24.52;13.13;;;;;;;4.83;46.22;100742.31;5077235;28;20021;-21
2022/01/26 12:13:37;;;;;;;27.08;16.55;;;;;;;5.20;46.01;100741.81;5077969;28;20522;-21
2022/01/26 12:16:09;;;;;;;23.55;11.85;;;;;;;5.40;45.76;100749.41;5071761;28;20040;-22
2022/01/26 12:18:43;;;;;;;20.92;10.48;;;;;;;4.93;45.02;100744.81;5076733;28;20112;-22
2022/01/26 12:45:06;;;;;;;26.65;12.68;;;;;;;4.17;48.44;100717.63;5087782;28;20028;-22
2022/01/26 12:47:32;;;;;;;25.08;14.68;;;;;;;4.38;48.89;100725.09;5068252;28;20085;-22
2022/01/26 12:49:57;;;;;;;22.13;12.38;;;;;;;4.39;48.62;100727.59;5051471;28;20109;-21
2022/01/26 12:52:23;;;;;;;23.95;12.38;;;;;;;4.14;48.47;100723.22;5052360;28;20041;-22
2022/01/26 12:54:48;;;;;;;25.38;11.57;;;;;;;4.31;48.56;100724.94;5068308;28;20063;-21
2022/01/26 12:57:14;;;;;;;20.88;12.95;;;;;;;4.41;48.39;100719.47;5068235;28;20032;-21
2022/01/26 12:59:39;;;;;;;28.42;14.52;;;;;;;4.77;48.36;100722.66;5069656;28;20454;-21
2022/01/26 13:02:05;;;;;;;30.75;16.38;;;;;;;4.98;47.02;100716.88;5069483;28;20123;-22
2022/01/26 13:04:30;;;;;;;19.63;10.95;;;;;;;5.01;47.22;100731.59;5069342;28;20047;-21
2022/01/26 13:06:56;;;;;;;19.67;10.57;;;;;;;4.79;47.97;100725.16;5069677;28;20039;-21
2022/01/26 13:09:41;;;;;;;20.30;11.43;;;;;;;4.67;47.68;100692.94;5069355;28;20029;-22
2022/01/26 13:12:07;;;;;;;20.20;13.05;;;;;;;4.96;47.67;100723.31;5069391;28;20170;-21
2022/01/26 13:14:41;;;;;;;17.35;7.93;;;;;;;4.26;47.41;100713.19;5069395;28;20111;-21
2022/01/26 13:26:24;;;;;;;35.17;19.45;;;;;;;4.31;49.08;100722.28;5056086;28;20482;-21
2022/01/26 13:29:11;;;;;;;26.70;13.70;;;;;;;4.38;47.70;100725.91;5068927;28;20020;-22
2022/01/26 13:37:27;;;;;;;31.20;14.52;;;;;;;4.61;47.76;100731.38;5013757;28;20572;-30
2022/01/26 13:40:07;;;;;;;31.38;15.55;;;;;;;4.30;49.23;100717.97;5068560;28;20082;-21
2022/01/26 13:56:01;;;;;;;15.52;9.32;;;;;;;4.31;49.25;100722.28;5067340;28;20036;-21
2022/01/26 13:58:20;;;;;;;16.83;8.77;;;;;;;4.16;49.51;100721.25;5062708;28;20039;-21
2022/01/26 14:00:55;;;;;;;15.57;8.90;;;;;;;4.32;49.62;100726.56;5068525;28;20075;-21
2022/01/26 14:03:24;;;;;;;13.85;7.47;;;;;;;4.14;49.86;100721.41;5068699;28;20066;-23